createdAt,value
2022-08-22T00:00:04.325Z,24.84
2022-08-22T00:01:04.316Z,24.81
2022-08-22T00:02:04.362Z,24.81
2022-08-22T00:02:41.798Z,25.17
2022-08-22T00:02:43.289Z,25.07
2022-08-22T00:02:44.176Z,25.01
2022-08-22T00:02:53.247Z,25.10
2022-08-22T00:02:57.557Z,24.86
2022-08-22T00:03:03.564Z,25.06
2022-08-22T00:04:05.287Z,24.80
2022-08-22T00:05:04.290Z,24.81
2022-08-22T00:06:04.269Z,24.81
2022-08-22T00:07:04.280Z,24.81
2022-08-22T00:08:04.297Z,24.80
2022-08-22T00:09:04.226Z,24.80
2022-08-22T00:10:04.245Z,24.80
2022-08-22T00:11:04.219Z,24.78
2022-08-22T00:12:04.195Z,24.78
2022-08-22T00:13:04.181Z,24.78
2022-08-22T00:14:04.200Z,24.78
2022-08-22T00:15:04.165Z,24.78
2022-08-22T00:16:04.206Z,24.78
2022-08-22T00:17:04.141Z,24.76
2022-08-22T00:18:05.666Z,24.77
2022-08-22T00:19:04.132Z,24.77
2022-08-22T00:20:04.131Z,24.77
2022-08-22T00:21:04.150Z,24.74
2022-08-22T00:22:04.085Z,24.77
2022-08-22T00:23:04.101Z,24.74
2022-08-22T00:24:04.058Z,24.74
2022-08-22T00:25:04.070Z,24.74
2022-08-22T00:26:04.035Z,24.74
2022-08-22T00:27:04.068Z,24.73
2022-08-22T00:28:04.053Z,24.73
2022-08-22T00:29:04.017Z,24.73
2022-08-22T00:30:04.019Z,24.73
2022-08-22T00:31:04.004Z,24.70
2022-08-22T00:32:04.000Z,24.69
2022-08-22T00:33:03.988Z,24.70
2022-08-22T00:34:03.969Z,24.70
2022-08-22T00:35:03.961Z,24.69
2022-08-22T00:36:03.947Z,24.69
2022-08-22T00:37:03.967Z,24.69
2022-08-22T00:38:03.953Z,24.69
2022-08-22T00:39:03.908Z,24.69
2022-08-22T00:40:04.000Z,24.68
2022-08-22T00:41:03.896Z,24.69
2022-08-22T00:42:03.875Z,24.68
2022-08-22T00:43:03.931Z,24.68
2022-08-22T00:44:03.907Z,24.68
2022-08-22T00:45:03.845Z,24.68
2022-08-22T00:46:03.846Z,24.68
2022-08-22T00:47:03.825Z,24.68
2022-08-22T00:48:03.899Z,24.66
2022-08-22T00:49:03.785Z,24.65
2022-08-22T00:50:03.809Z,24.66
2022-08-22T00:51:03.773Z,24.66
2022-08-22T00:52:03.782Z,24.65
2022-08-22T00:53:03.754Z,24.65
2022-08-22T00:54:03.803Z,24.63
2022-08-22T00:55:03.728Z,24.63
2022-08-22T00:56:03.715Z,24.65
2022-08-22T00:57:03.746Z,24.65
2022-08-22T00:58:03.694Z,24.65
2022-08-22T00:59:22.967Z,24.65
2022-08-22T01:00:04.699Z,24.63
2022-08-22T01:01:03.727Z,24.63
2022-08-22T01:02:03.654Z,24.61
2022-08-22T01:03:03.659Z,24.61
2022-08-22T01:04:03.652Z,24.61
2022-08-22T01:05:03.645Z,24.61
2022-08-22T01:06:03.623Z,24.61
2022-08-22T01:07:03.635Z,24.61
2022-08-22T01:08:03.585Z,24.61
2022-08-22T01:09:03.591Z,24.60
2022-08-22T01:10:03.588Z,24.58
2022-08-22T01:11:03.570Z,24.60
2022-08-22T01:12:03.560Z,24.58
2022-08-22T01:13:03.545Z,24.58
2022-08-22T01:14:03.513Z,24.58
2022-08-22T01:15:03.504Z,24.58
2022-08-22T01:16:03.529Z,24.58
2022-08-22T01:17:03.492Z,24.58
2022-08-22T01:18:03.508Z,24.57
2022-08-22T01:19:03.471Z,24.58
2022-08-22T01:20:03.497Z,24.58
2022-08-22T01:21:03.488Z,24.57
2022-08-22T01:22:03.448Z,24.58
2022-08-22T01:23:03.437Z,24.57
2022-08-22T01:24:03.425Z,24.57
2022-08-22T01:25:03.403Z,24.55
2022-08-22T01:26:03.384Z,24.57
2022-08-22T01:27:03.431Z,24.57
2022-08-22T01:28:03.373Z,24.57
2022-08-22T01:29:03.390Z,24.55
2022-08-22T01:30:03.393Z,24.55
2022-08-22T01:31:03.343Z,24.55
2022-08-22T01:32:03.323Z,24.55
2022-08-22T01:33:03.357Z,24.54
2022-08-22T01:34:03.293Z,24.55
2022-08-22T01:35:03.317Z,24.55
2022-08-22T01:36:03.272Z,24.54
2022-08-22T01:37:03.339Z,24.53
2022-08-22T01:38:03.266Z,24.54
2022-08-22T01:39:03.260Z,24.53
2022-08-22T01:40:03.297Z,24.54
2022-08-22T01:41:03.260Z,24.51
2022-08-22T01:42:03.216Z,24.53
2022-08-22T01:43:03.231Z,24.51
2022-08-22T01:44:03.197Z,24.51
2022-08-22T01:45:03.184Z,24.51
2022-08-22T01:46:03.196Z,24.50
2022-08-22T01:47:03.207Z,24.50
2022-08-22T01:48:03.144Z,24.51
2022-08-22T01:49:03.134Z,24.50
2022-08-22T01:50:03.113Z,24.50
2022-08-22T01:51:03.133Z,24.50
2022-08-22T01:52:03.108Z,24.48
2022-08-22T01:53:03.094Z,24.48
2022-08-22T01:54:03.089Z,24.50
2022-08-22T01:55:03.092Z,24.50
2022-08-22T01:56:03.093Z,24.47
2022-08-22T01:57:03.058Z,24.48
2022-08-22T01:58:03.033Z,24.48
2022-08-22T01:59:03.037Z,24.48
2022-08-22T02:00:03.023Z,24.47
2022-08-22T02:01:03.062Z,24.47
2022-08-22T02:02:03.014Z,24.47
2022-08-22T02:03:03.006Z,24.47
2022-08-22T02:04:03.087Z,24.47
2022-08-22T02:05:02.980Z,24.47
2022-08-22T02:06:02.964Z,24.45
2022-08-22T02:07:02.972Z,24.45
2022-08-22T02:08:02.947Z,24.45
2022-08-22T02:09:02.951Z,24.45
2022-08-22T02:10:02.916Z,24.45
2022-08-22T02:11:02.901Z,24.43
2022-08-22T02:12:02.901Z,24.43
2022-08-22T02:13:02.873Z,24.45
2022-08-22T02:14:02.895Z,24.45
2022-08-22T02:15:02.879Z,24.45
2022-08-22T02:16:02.833Z,24.42
2022-08-22T02:17:02.864Z,24.42
2022-08-22T02:18:02.812Z,24.42
2022-08-22T02:19:02.856Z,24.43
2022-08-22T02:20:02.804Z,24.43
2022-08-22T02:21:02.796Z,24.42
2022-08-22T02:22:02.777Z,24.42
2022-08-22T02:23:02.763Z,24.42
2022-08-22T02:24:02.756Z,24.42
2022-08-22T02:25:02.755Z,24.42
2022-08-22T02:26:03.722Z,24.42
2022-08-22T02:27:02.735Z,24.40
2022-08-22T02:28:02.715Z,24.40
2022-08-22T02:29:02.755Z,24.40
2022-08-22T02:30:02.699Z,24.40
2022-08-22T02:31:02.692Z,24.39
2022-08-22T02:32:02.695Z,24.40
2022-08-22T02:33:02.665Z,24.39
2022-08-22T02:34:02.633Z,24.39
2022-08-22T02:35:02.644Z,24.39
2022-08-22T02:36:02.612Z,24.39
2022-08-22T02:37:02.626Z,24.39
2022-08-22T02:38:02.602Z,24.39
2022-08-22T02:39:02.615Z,24.38
2022-08-22T02:40:02.695Z,24.39
2022-08-22T02:41:02.563Z,24.39
2022-08-22T02:42:02.560Z,24.36
2022-08-22T02:43:02.551Z,24.38
2022-08-22T02:44:02.539Z,24.38
2022-08-22T02:45:02.566Z,24.36
2022-08-22T02:46:02.502Z,24.38
2022-08-22T02:47:02.498Z,24.38
2022-08-22T02:48:02.484Z,24.36
2022-08-22T02:49:02.491Z,24.38
2022-08-22T02:50:02.472Z,24.36
2022-08-22T02:51:02.462Z,24.35
2022-08-22T02:52:02.458Z,24.36
2022-08-22T02:53:02.467Z,24.35
2022-08-22T02:54:02.437Z,24.35
2022-08-22T02:55:02.464Z,24.35
2022-08-22T02:56:02.415Z,24.35
2022-08-22T02:57:02.417Z,24.35
2022-08-22T02:58:02.397Z,24.35
2022-08-22T02:59:02.374Z,24.35
2022-08-22T03:00:02.371Z,24.35
2022-08-22T03:01:02.473Z,24.35
2022-08-22T03:02:02.364Z,24.33
2022-08-22T03:03:02.347Z,24.33
2022-08-22T03:04:02.335Z,24.35
2022-08-22T03:05:02.351Z,24.33
2022-08-22T03:06:02.325Z,24.33
2022-08-22T03:07:02.304Z,24.33
2022-08-22T03:08:02.304Z,24.32
2022-08-22T03:09:02.272Z,24.32
2022-08-22T03:10:02.255Z,24.32
2022-08-22T03:11:02.286Z,24.32
2022-08-22T03:12:02.265Z,24.32
2022-08-22T03:13:02.221Z,24.30
2022-08-22T03:14:02.216Z,24.32
2022-08-22T03:15:02.220Z,24.32
2022-08-22T03:16:02.193Z,24.30
2022-08-22T03:17:02.193Z,24.30
2022-08-22T03:18:02.216Z,24.30
2022-08-22T03:19:02.165Z,24.29
2022-08-22T03:20:02.134Z,24.30
2022-08-22T03:21:02.167Z,24.29
2022-08-22T03:22:02.116Z,24.29
2022-08-22T03:23:02.121Z,24.29
2022-08-22T03:24:02.130Z,24.29
2022-08-22T03:25:02.092Z,24.28
2022-08-22T03:26:02.134Z,24.28
2022-08-22T03:27:03.087Z,24.28
2022-08-22T03:28:02.308Z,24.26
2022-08-22T03:29:02.054Z,24.28
2022-08-22T03:30:02.067Z,24.26
2022-08-22T03:31:02.079Z,24.26
2022-08-22T03:32:02.012Z,24.26
2022-08-22T03:33:02.003Z,24.26
2022-08-22T03:34:02.002Z,24.24
2022-08-22T03:35:02.051Z,24.26
2022-08-22T03:36:01.975Z,24.23
2022-08-22T03:37:01.988Z,24.24
2022-08-22T03:38:01.964Z,24.24
2022-08-22T03:39:01.931Z,24.23
2022-08-22T03:40:01.998Z,24.23
2022-08-22T03:41:01.963Z,24.21
2022-08-22T03:42:01.912Z,24.24
2022-08-22T03:43:01.989Z,24.23
2022-08-22T03:44:01.897Z,24.23
2022-08-22T03:45:01.888Z,24.23
2022-08-22T03:46:01.853Z,24.21
2022-08-22T03:47:01.867Z,24.23
2022-08-22T03:48:01.834Z,24.23
2022-08-22T03:49:01.844Z,24.21
2022-08-22T03:50:01.816Z,24.20
2022-08-22T03:51:01.805Z,24.21
2022-08-22T03:52:01.780Z,24.21
2022-08-22T03:53:01.804Z,24.20
2022-08-22T03:54:01.785Z,24.21
2022-08-22T03:55:01.774Z,24.20
2022-08-22T03:56:01.775Z,24.20
2022-08-22T03:57:01.751Z,24.20
2022-08-22T03:58:01.736Z,24.20
2022-08-22T03:59:01.718Z,24.20
2022-08-22T04:00:02.710Z,24.20
2022-08-22T04:01:01.737Z,24.20
2022-08-22T04:02:01.690Z,24.18
2022-08-22T04:03:01.692Z,24.18
2022-08-22T04:04:01.672Z,24.18
2022-08-22T04:05:01.678Z,24.18
2022-08-22T04:06:01.656Z,24.18
2022-08-22T04:07:01.644Z,24.18
2022-08-22T04:08:01.635Z,24.18
2022-08-22T04:09:01.611Z,24.18
2022-08-22T04:10:01.602Z,24.17
2022-08-22T04:11:02.515Z,24.17
2022-08-22T04:12:01.584Z,24.17
2022-08-22T04:13:01.571Z,24.17
2022-08-22T04:14:01.552Z,24.17
2022-08-22T04:15:01.555Z,24.17
2022-08-22T04:16:01.532Z,24.17
2022-08-22T04:17:01.555Z,24.16
2022-08-22T04:18:01.529Z,24.17
2022-08-22T04:19:01.527Z,24.17
2022-08-22T04:20:01.505Z,24.16
2022-08-22T04:21:01.481Z,24.14
2022-08-22T04:22:01.504Z,24.17
2022-08-22T04:23:01.476Z,24.16
2022-08-22T04:24:01.454Z,24.16
2022-08-22T04:25:05.813Z,24.14
2022-08-22T04:26:10.766Z,24.14
2022-08-22T04:27:02.420Z,24.14
2022-08-22T04:28:01.399Z,24.14
2022-08-22T04:29:01.404Z,24.14
2022-08-22T04:30:01.397Z,24.14
2022-08-22T04:31:01.364Z,24.14
2022-08-22T04:32:01.358Z,24.16
2022-08-22T04:33:01.365Z,24.14
2022-08-22T04:34:01.358Z,24.13
2022-08-22T04:35:01.329Z,24.14
2022-08-22T04:36:01.334Z,24.13
2022-08-22T04:37:01.290Z,24.11
2022-08-22T04:38:01.320Z,24.13
2022-08-22T04:39:01.282Z,24.11
2022-08-22T04:40:01.385Z,24.11
2022-08-22T04:41:04.387Z,24.13
2022-08-22T04:42:28.733Z,24.11
2022-08-22T04:43:03.686Z,24.11
2022-08-22T04:44:01.253Z,24.11
2022-08-22T04:45:01.226Z,24.11
2022-08-22T04:46:01.189Z,24.11
2022-08-22T04:47:01.205Z,24.10
2022-08-22T04:48:01.262Z,24.11
2022-08-22T04:49:01.192Z,24.10
2022-08-22T04:50:01.422Z,24.10
2022-08-22T04:51:01.163Z,24.10
2022-08-22T04:52:01.134Z,24.10
2022-08-22T04:53:01.129Z,24.11
2022-08-22T04:54:01.143Z,24.10
2022-08-22T04:55:01.107Z,24.10
2022-08-22T04:56:05.291Z,24.10
2022-08-22T04:57:02.102Z,24.10
2022-08-22T04:58:01.073Z,24.10
2022-08-22T04:59:01.082Z,24.10
2022-08-22T05:00:01.068Z,24.08
2022-08-22T05:01:01.046Z,24.08
2022-08-22T05:02:01.141Z,24.08
2022-08-22T05:03:01.019Z,24.08
2022-08-22T05:04:01.018Z,24.10
2022-08-22T05:05:01.010Z,24.08
2022-08-22T05:06:01.008Z,24.08
2022-08-22T05:07:01.005Z,24.08
2022-08-22T05:08:01.102Z,24.10
2022-08-22T05:09:00.973Z,24.08
2022-08-22T05:10:00.952Z,24.08
2022-08-22T05:11:01.941Z,24.08
2022-08-22T05:12:00.935Z,24.10
2022-08-22T05:13:00.930Z,24.06
2022-08-22T05:14:00.892Z,24.08
2022-08-22T05:15:00.924Z,24.06
2022-08-22T05:16:00.888Z,24.06
2022-08-22T05:17:00.883Z,24.08
2022-08-22T05:18:00.883Z,24.08
2022-08-22T05:19:00.847Z,24.06
2022-08-22T05:20:00.861Z,24.06
2022-08-22T05:21:00.936Z,24.08
2022-08-22T05:22:01.044Z,24.06
2022-08-22T05:23:00.799Z,24.06
2022-08-22T05:24:00.803Z,24.06
2022-08-22T05:28:41.945Z,24.08
2022-08-22T05:29:41.937Z,24.06
2022-08-22T05:30:44.648Z,24.06
2022-08-22T05:31:41.928Z,24.06
2022-08-22T05:32:41.923Z,24.06
2022-08-22T05:33:41.896Z,24.06
2022-08-22T05:34:41.889Z,24.06
2022-08-22T05:35:44.909Z,24.06
2022-08-22T05:36:42.871Z,24.06
2022-08-22T05:37:41.851Z,24.06
2022-08-22T05:38:41.837Z,24.06
2022-08-22T05:39:41.866Z,24.08
2022-08-22T05:40:41.840Z,24.06
2022-08-22T05:41:41.837Z,24.06
2022-08-22T05:42:41.803Z,24.06
2022-08-22T05:43:41.806Z,24.06
2022-08-22T05:44:41.766Z,24.06
2022-08-22T05:45:41.756Z,24.08
2022-08-22T05:46:41.765Z,24.08
2022-08-22T05:47:41.745Z,24.08
2022-08-22T05:48:41.744Z,24.08
2022-08-22T05:49:41.728Z,24.08
2022-08-22T05:50:41.770Z,24.08
2022-08-22T05:51:41.754Z,24.10
2022-08-22T05:52:41.712Z,24.10
2022-08-22T05:53:41.681Z,24.08
2022-08-22T05:54:41.664Z,24.10
2022-08-22T05:55:41.646Z,24.08
2022-08-22T05:56:41.685Z,24.10
2022-08-22T05:57:41.649Z,24.10
2022-08-22T05:58:41.639Z,24.10
2022-08-22T05:59:41.608Z,24.10
2022-08-22T06:00:41.596Z,24.10
2022-08-22T06:01:41.660Z,24.10
2022-08-22T06:02:41.589Z,24.10
2022-08-22T06:03:41.601Z,24.10
2022-08-22T06:04:41.555Z,24.08
2022-08-22T06:05:41.555Z,24.11
2022-08-22T06:06:41.534Z,24.10
2022-08-22T06:07:41.523Z,24.10
2022-08-22T06:08:41.504Z,24.10
2022-08-22T06:09:41.542Z,24.08
2022-08-22T06:10:41.500Z,24.10
2022-08-22T06:11:41.475Z,24.08
2022-08-22T06:12:43.156Z,24.08
2022-08-22T06:13:41.759Z,24.08
2022-08-22T06:14:41.473Z,24.10
2022-08-22T06:15:41.441Z,24.08
2022-08-22T06:16:47.400Z,24.08
2022-08-22T06:17:42.434Z,24.08
2022-08-22T06:18:41.410Z,24.10
2022-08-22T06:19:41.418Z,24.08
2022-08-22T06:20:41.414Z,24.08
2022-08-22T06:21:41.360Z,24.10
2022-08-22T06:22:41.367Z,24.08
2022-08-22T06:23:41.342Z,24.06
2022-08-22T06:24:41.426Z,24.06
2022-08-22T06:25:41.331Z,24.06
2022-08-22T06:26:41.327Z,24.06
2022-08-22T06:27:41.293Z,24.08
2022-08-22T06:28:54.492Z,24.06
2022-08-22T06:29:42.264Z,24.06
2022-08-22T06:30:41.291Z,24.06
2022-08-22T06:31:41.286Z,24.08
2022-08-22T06:32:58.480Z,24.08
2022-08-22T06:33:45.479Z,24.08
2022-08-22T06:34:41.223Z,24.05
2022-08-22T06:35:41.204Z,24.08
2022-08-22T06:36:41.226Z,24.06
2022-08-22T06:37:41.316Z,24.06
2022-08-22T06:38:41.181Z,24.06
2022-08-22T06:39:41.193Z,24.05
2022-08-22T06:40:41.155Z,24.06
2022-08-22T06:41:41.157Z,24.06
2022-08-22T06:42:41.187Z,24.06
2022-08-22T06:43:41.145Z,24.06
2022-08-22T06:44:41.127Z,24.03
2022-08-22T06:45:41.113Z,24.05
2022-08-22T06:46:41.129Z,24.05
2022-08-22T06:47:41.087Z,24.05
2022-08-22T06:48:41.089Z,24.05
2022-08-22T06:49:41.053Z,24.05
2022-08-22T06:50:41.043Z,24.03
2022-08-22T06:51:41.048Z,24.05
2022-08-22T06:52:41.046Z,24.03
2022-08-22T06:53:47.829Z,24.03
2022-08-22T06:54:42.019Z,24.03
2022-08-22T06:55:41.053Z,24.03
2022-08-22T06:56:40.981Z,24.03
2022-08-22T06:57:40.972Z,24.03
2022-08-22T06:58:40.969Z,24.03
2022-08-22T06:59:40.944Z,24.02
2022-08-22T07:00:40.967Z,24.03
2022-08-22T07:01:40.954Z,24.02
2022-08-22T07:02:40.923Z,24.03
2022-08-22T07:03:40.897Z,24.02
2022-08-22T07:04:40.892Z,24.03
2022-08-22T07:05:40.872Z,24.03
2022-08-22T07:06:40.897Z,24.03
2022-08-22T07:07:40.866Z,24.03
2022-08-22T07:08:40.873Z,24.03
2022-08-22T07:09:40.837Z,24.03
2022-08-22T07:10:40.831Z,24.03
2022-08-22T07:11:40.848Z,24.03
2022-08-22T07:12:40.802Z,24.03
2022-08-22T07:13:40.786Z,24.02
2022-08-22T07:14:40.799Z,24.02
2022-08-22T07:15:40.811Z,24.02
2022-08-22T07:16:40.796Z,24.03
2022-08-22T07:17:40.777Z,24.01
2022-08-22T07:18:40.787Z,24.02
2022-08-22T07:19:40.727Z,24.02
2022-08-22T07:20:40.721Z,24.02
2022-08-22T07:21:40.712Z,24.02
2022-08-22T07:22:40.731Z,24.02
2022-08-22T07:23:40.706Z,24.02
2022-08-22T07:24:40.687Z,24.02
2022-08-22T07:25:40.676Z,24.02
2022-08-22T07:26:40.664Z,24.02
2022-08-22T07:27:40.665Z,24.02
2022-08-22T07:28:51.280Z,24.02
2022-08-22T07:29:41.633Z,24.02
2022-08-22T07:30:40.816Z,24.02
2022-08-22T07:31:40.649Z,24.02
2022-08-22T07:32:40.602Z,24.02
2022-08-22T07:33:40.564Z,24.02
2022-08-22T07:34:40.564Z,24.02
2022-08-22T07:35:40.563Z,24.03
2022-08-22T07:36:40.611Z,24.02
2022-08-22T07:37:40.555Z,24.02
2022-08-22T07:38:40.512Z,24.03
2022-08-22T07:39:40.592Z,24.02
2022-08-22T07:40:40.492Z,24.02
2022-08-22T07:41:40.545Z,24.02
2022-08-22T07:42:40.465Z,24.02
2022-08-22T07:43:40.460Z,24.03
2022-08-22T07:44:40.505Z,24.02
2022-08-22T07:45:40.455Z,24.02
2022-08-22T07:46:40.424Z,24.02
2022-08-22T07:47:40.436Z,24.02
2022-08-22T07:48:59.331Z,24.01
2022-08-22T07:49:49.623Z,24.02
2022-08-22T07:50:41.395Z,24.02
2022-08-22T07:51:40.393Z,24.03
2022-08-22T07:52:40.375Z,24.02
2022-08-22T07:53:40.365Z,24.02
2022-08-22T07:54:40.379Z,24.02
2022-08-22T07:55:49.291Z,24.02
2022-08-22T07:56:41.314Z,24.01
2022-08-22T07:57:40.339Z,24.01
2022-08-22T07:58:40.308Z,24.02
2022-08-22T07:59:40.306Z,24.02
2022-08-22T08:00:40.320Z,24.01
2022-08-22T08:01:40.381Z,24.02
2022-08-22T08:02:40.257Z,24.02
2022-08-22T08:03:40.295Z,24.02
2022-08-22T08:04:40.778Z,24.02
2022-08-22T08:05:40.239Z,24.01
2022-08-22T08:06:40.232Z,24.02
2022-08-22T08:07:40.215Z,24.02
2022-08-22T08:08:40.195Z,24.02
2022-08-22T08:09:40.181Z,24.02
2022-08-22T08:10:40.248Z,24.01
2022-08-22T08:11:40.159Z,24.01
2022-08-22T08:12:40.169Z,24.02
2022-08-22T08:13:40.157Z,24.02
2022-08-22T08:14:40.138Z,24.01
2022-08-22T08:15:40.111Z,24.02
2022-08-22T08:16:40.112Z,24.01
2022-08-22T08:17:40.097Z,24.02
2022-08-22T08:18:40.080Z,24.02
2022-08-22T08:19:40.080Z,24.02
2022-08-22T08:20:40.096Z,24.03
2022-08-22T08:21:40.063Z,24.02
2022-08-22T08:22:40.165Z,24.01
2022-08-22T08:23:40.367Z,24.02
2022-08-22T08:24:40.947Z,24.02
2022-08-22T08:25:40.010Z,24.02
2022-08-22T08:26:40.152Z,24.02
2022-08-22T08:27:39.997Z,24.01
2022-08-22T08:28:40.280Z,24.02
2022-08-22T08:29:40.112Z,24.02
2022-08-22T08:30:40.090Z,24.01
2022-08-22T08:31:44.727Z,24.02
2022-08-22T08:32:41.231Z,24.01
2022-08-22T08:33:39.924Z,24.02
2022-08-22T08:34:39.912Z,24.02
2022-08-22T08:36:02.010Z,24.01
2022-08-22T08:36:40.956Z,24.01
2022-08-22T08:37:39.894Z,24.01
2022-08-22T08:38:39.861Z,24.02
2022-08-22T08:39:39.924Z,24.01
2022-08-22T08:40:39.840Z,24.01
2022-08-22T08:41:39.828Z,24.01
2022-08-22T08:42:39.829Z,23.99
2022-08-22T08:43:39.848Z,24.01
2022-08-22T08:44:39.813Z,24.01
2022-08-22T08:45:39.814Z,24.01
2022-08-22T08:46:39.770Z,23.99
2022-08-22T08:47:39.966Z,24.01
2022-08-22T08:48:39.753Z,24.01
2022-08-22T08:49:42.881Z,23.99
2022-08-22T08:50:39.893Z,24.01
2022-08-22T08:51:39.752Z,24.01
2022-08-22T08:52:39.969Z,23.99
2022-08-22T08:53:42.913Z,23.99
2022-08-22T08:54:39.771Z,23.98
2022-08-22T08:55:39.683Z,23.99
2022-08-22T08:56:39.934Z,23.99
2022-08-22T08:57:40.809Z,23.99
2022-08-22T08:58:39.698Z,23.99
2022-08-22T08:59:42.431Z,23.99
2022-08-22T09:00:41.028Z,23.99
2022-08-22T09:01:39.702Z,23.98
2022-08-22T09:02:42.432Z,23.99
2022-08-22T09:03:40.180Z,23.99
2022-08-22T09:04:39.559Z,23.99
2022-08-22T09:05:39.571Z,23.99
2022-08-22T09:06:42.576Z,23.99
2022-08-22T09:07:39.537Z,23.98
2022-08-22T09:08:39.566Z,23.99
2022-08-22T09:09:39.550Z,23.98
2022-08-22T09:10:39.535Z,23.99
2022-08-22T09:11:39.511Z,23.99
2022-08-22T09:12:43.396Z,23.98
2022-08-22T09:13:40.826Z,23.98
2022-08-22T09:14:39.472Z,23.98
2022-08-22T09:15:40.474Z,23.98
2022-08-22T09:16:45.096Z,23.98
2022-08-22T09:17:40.439Z,23.99
2022-08-22T09:18:39.418Z,24.01
2022-08-22T09:19:39.439Z,23.99
2022-08-22T09:20:39.402Z,23.99
2022-08-22T09:21:39.404Z,24.01
2022-08-22T09:22:50.771Z,24.01
2022-08-22T09:23:40.413Z,23.99
2022-08-22T09:24:39.351Z,24.01
2022-08-22T09:25:40.478Z,24.01
2022-08-22T09:26:39.453Z,24.01
2022-08-22T09:27:39.331Z,24.01
2022-08-22T09:28:39.309Z,24.01
2022-08-22T09:29:54.962Z,24.01
2022-08-22T09:30:40.296Z,24.01
2022-08-22T09:31:48.239Z,24.01
2022-08-22T09:32:40.269Z,24.01
2022-08-22T09:33:39.278Z,24.02
2022-08-22T09:34:39.257Z,24.03
2022-08-22T09:35:39.242Z,24.02
2022-08-22T09:36:39.222Z,24.02
2022-08-22T09:37:39.205Z,24.02
2022-08-22T09:38:39.224Z,24.03
2022-08-22T09:39:40.241Z,24.02
2022-08-22T09:40:39.168Z,24.02
2022-08-22T09:41:39.186Z,24.05
2022-08-22T09:42:39.182Z,24.03
2022-08-22T09:43:44.112Z,24.03
2022-08-22T09:44:40.152Z,24.05
2022-08-22T09:45:39.122Z,24.05
2022-08-22T09:46:39.120Z,24.05
2022-08-22T09:47:39.288Z,24.05
2022-08-22T09:48:39.103Z,24.05
2022-08-22T09:49:39.076Z,24.08
2022-08-22T09:50:39.091Z,24.06
2022-08-22T09:51:39.067Z,24.06
2022-08-22T09:52:39.051Z,24.08
2022-08-22T09:53:39.051Z,24.10
2022-08-22T09:54:39.061Z,24.10
2022-08-22T09:55:39.017Z,24.11
2022-08-22T09:56:39.013Z,24.10
2022-08-22T09:57:39.009Z,24.10
2022-08-22T09:58:40.842Z,24.11
2022-08-22T09:59:38.968Z,24.10
2022-08-22T10:00:38.961Z,24.11
2022-08-22T10:01:39.036Z,24.11
2022-08-22T10:02:43.685Z,24.11
2022-08-22T10:03:38.921Z,24.13
2022-08-22T10:04:38.909Z,24.13
2022-08-22T10:05:43.593Z,24.11
2022-08-22T10:06:39.888Z,24.11
2022-08-22T10:07:38.900Z,24.13
2022-08-22T10:08:38.857Z,24.13
2022-08-22T10:09:38.871Z,24.13
2022-08-22T10:10:38.848Z,24.13
2022-08-22T10:11:39.044Z,24.14
2022-08-22T10:12:38.825Z,24.13
2022-08-22T10:13:39.817Z,24.13
2022-08-22T10:14:38.811Z,24.13
2022-08-22T10:15:38.810Z,24.13
2022-08-22T10:16:38.790Z,24.13
2022-08-22T10:17:41.338Z,24.13
2022-08-22T10:18:52.497Z,24.13
2022-08-22T10:19:40.150Z,24.13
2022-08-22T10:20:38.728Z,24.14
2022-08-22T10:21:39.781Z,24.14
2022-08-22T10:22:39.094Z,24.14
2022-08-22T10:23:38.752Z,24.14
2022-08-22T10:24:44.129Z,24.16
2022-08-22T10:25:41.719Z,24.14
2022-08-22T10:26:39.102Z,24.16
2022-08-22T10:27:38.657Z,24.16
2022-08-22T10:28:38.636Z,24.14
2022-08-22T10:29:39.800Z,24.17
2022-08-22T10:30:38.629Z,24.16
2022-08-22T10:31:45.038Z,24.17
2022-08-22T10:32:39.612Z,24.18
2022-08-22T10:33:39.715Z,24.18
2022-08-22T10:34:38.610Z,24.18
2022-08-22T10:35:38.610Z,24.18
2022-08-22T10:36:38.557Z,24.20
2022-08-22T10:37:39.590Z,24.18
2022-08-22T10:38:46.350Z,24.20
2022-08-22T10:39:39.557Z,24.20
2022-08-22T10:40:38.519Z,24.21
2022-08-22T10:41:38.600Z,24.21
2022-08-22T10:42:38.502Z,24.21
2022-08-22T10:43:38.478Z,24.23
2022-08-22T10:44:38.466Z,24.23
2022-08-22T10:45:38.460Z,24.24
2022-08-22T10:46:38.913Z,24.23
2022-08-22T10:47:38.460Z,24.24
2022-08-22T10:48:38.416Z,24.28
2022-08-22T10:49:38.413Z,24.26
2022-08-22T10:50:38.401Z,24.26
2022-08-22T10:51:38.837Z,24.26
2022-08-22T10:52:38.378Z,24.28
2022-08-22T10:53:38.392Z,24.29
2022-08-22T10:54:38.359Z,24.29
2022-08-22T10:55:38.338Z,24.29
2022-08-22T10:56:38.339Z,24.29
2022-08-22T10:57:38.350Z,24.32
2022-08-22T10:58:38.329Z,24.32
2022-08-22T10:59:38.330Z,24.32
2022-08-22T11:00:38.440Z,24.33
2022-08-22T11:01:42.172Z,24.33
2022-08-22T11:02:38.286Z,24.35
2022-08-22T11:03:38.283Z,24.35
2022-08-22T11:04:38.261Z,24.35
2022-08-22T11:05:38.253Z,24.33
2022-08-22T11:06:38.219Z,24.35
2022-08-22T11:07:38.218Z,24.35
2022-08-22T11:08:38.225Z,24.36
2022-08-22T11:09:38.210Z,24.35
2022-08-22T11:10:38.201Z,24.36
2022-08-22T11:11:38.189Z,24.38
2022-08-22T11:12:41.786Z,24.38
2022-08-22T11:13:38.169Z,24.36
2022-08-22T11:14:38.337Z,24.36
2022-08-22T11:15:38.142Z,24.36
2022-08-22T11:16:41.745Z,24.36
2022-08-22T11:17:41.705Z,24.36
2022-08-22T11:18:39.114Z,24.36
2022-08-22T11:19:38.077Z,24.36
2022-08-22T11:20:38.101Z,24.38
2022-08-22T11:21:38.071Z,24.38
2022-08-22T11:22:38.061Z,24.38
2022-08-22T11:23:38.051Z,24.36
2022-08-22T11:24:55.913Z,24.36
2022-08-22T11:25:39.291Z,24.38
2022-08-22T11:26:47.377Z,24.38
2022-08-22T11:27:40.148Z,24.38
2022-08-22T11:28:37.990Z,24.38
2022-08-22T11:29:38.446Z,24.36
2022-08-22T11:30:44.567Z,24.38
2022-08-22T11:31:38.963Z,24.35
2022-08-22T11:32:38.933Z,24.38
2022-08-22T11:33:47.419Z,24.38
2022-08-22T11:34:38.915Z,24.36
2022-08-22T11:35:37.921Z,24.38
2022-08-22T11:36:37.920Z,24.38
2022-08-22T11:37:42.830Z,24.38
2022-08-22T11:38:38.892Z,24.38
2022-08-22T11:39:37.904Z,24.38
2022-08-22T11:40:37.870Z,24.39
2022-08-22T11:41:37.841Z,24.38
2022-08-22T11:42:47.706Z,24.38
2022-08-22T11:43:39.361Z,24.39
2022-08-22T11:44:50.437Z,24.39
2022-08-22T11:45:38.812Z,24.39
2022-08-22T11:46:37.829Z,24.39
2022-08-22T11:47:37.792Z,24.39
2022-08-22T11:48:37.773Z,24.39
2022-08-22T11:49:37.749Z,24.40
2022-08-22T11:50:37.759Z,24.40
2022-08-22T11:51:37.793Z,24.42
2022-08-22T11:52:37.947Z,24.42
2022-08-22T11:53:37.752Z,24.43
2022-08-22T11:54:37.712Z,24.43
2022-08-22T11:55:37.702Z,24.42
2022-08-22T11:56:37.784Z,24.42
2022-08-22T11:57:38.110Z,24.43
2022-08-22T11:58:38.003Z,24.45
2022-08-22T11:59:40.165Z,24.45
2022-08-22T12:00:38.644Z,24.43
2022-08-22T12:01:37.940Z,24.47
2022-08-22T12:02:37.624Z,24.47
2022-08-22T12:03:37.613Z,24.48
2022-08-22T12:04:37.596Z,24.47
2022-08-22T12:05:38.568Z,24.47
2022-08-22T12:06:37.563Z,24.47
2022-08-22T12:07:37.548Z,24.47
2022-08-22T12:08:37.562Z,24.47
2022-08-22T12:09:37.927Z,24.48
2022-08-22T12:10:37.543Z,24.50
2022-08-22T12:11:37.521Z,24.48
2022-08-22T12:12:37.513Z,24.48
2022-08-22T12:13:37.557Z,24.48
2022-08-22T12:14:37.497Z,24.48
2022-08-22T12:15:37.485Z,24.50
2022-08-22T12:16:37.474Z,24.50
2022-08-22T12:17:55.896Z,24.50
2022-08-22T12:18:38.528Z,24.50
2022-08-22T12:19:42.100Z,24.50
2022-08-22T12:20:38.440Z,24.50
2022-08-22T12:21:38.565Z,24.50
2022-08-22T12:22:37.392Z,24.50
2022-08-22T12:23:49.012Z,24.50
2022-08-22T12:24:38.381Z,24.50
2022-08-22T12:25:37.352Z,24.50
2022-08-22T12:26:38.363Z,24.48
2022-08-22T12:27:37.342Z,24.48
2022-08-22T12:28:37.321Z,24.48
2022-08-22T12:29:44.784Z,24.48
2022-08-22T12:30:38.312Z,24.48
2022-08-22T12:31:37.305Z,24.47
2022-08-22T12:32:37.300Z,24.47
2022-08-22T12:33:37.249Z,24.48
2022-08-22T12:34:37.315Z,24.47
2022-08-22T12:35:37.256Z,24.47
2022-08-22T12:36:37.378Z,24.48
2022-08-22T12:37:44.932Z,24.47
2022-08-22T12:38:38.256Z,24.45
2022-08-22T12:39:37.411Z,24.47
2022-08-22T12:40:37.257Z,24.47
2022-08-22T12:41:38.192Z,24.47
2022-08-22T12:42:37.162Z,24.48
2022-08-22T12:43:39.898Z,24.47
2022-08-22T12:44:38.182Z,24.47
2022-08-22T12:45:37.302Z,24.47
2022-08-22T12:46:37.267Z,24.48
2022-08-22T12:47:38.123Z,24.48
2022-08-22T12:48:37.175Z,24.47
2022-08-22T12:49:37.098Z,24.50
2022-08-22T12:50:37.069Z,24.50